sensor_id;sensor_type;location;lat;lon;timestamp;pressure;altitude;pressure_sealevel;temperature;humidity
66479;BME280;53294;47.912;13.526;2024-03-06T00:02:21;96015.66;;;4.57;81.76
66479;BME280;53294;47.912;13.526;2024-03-06T00:04:49;96018.63;;;4.60;81.74
66479;BME280;53294;47.912;13.526;2024-03-06T00:07:16;96011.69;;;4.59;81.58
66479;BME280;53294;47.912;13.526;2024-03-06T00:09:42;96010.91;;;4.59;82.31
66479;BME280;53294;47.912;13.526;2024-03-06T00:12:09;96007.72;;;4.62;82.23
66479;BME280;53294;47.912;13.526;2024-03-06T00:14:36;96013.03;;;4.62;82.34
66479;BME280;53294;47.912;13.526;2024-03-06T00:17:03;96009.84;;;4.65;81.95
66479;BME280;53294;47.912;13.526;2024-03-06T00:19:34;96009.84;;;4.65;81.87
66479;BME280;53294;47.912;13.526;2024-03-06T00:22:01;96009.03;;;4.64;82.17
66479;BME280;53294;47.912;13.526;2024-03-06T00:24:29;96017.84;;;4.65;82.18
66479;BME280;53294;47.912;13.526;2024-03-06T00:26:56;96021.00;;;4.62;82.12
66479;BME280;53294;47.912;13.526;2024-03-06T00:29:23;96023.94;;;4.65;82.03
66479;BME280;53294;47.912;13.526;2024-03-06T00:31:49;96010.91;;;4.69;81.52
66479;BME280;53294;47.912;13.526;2024-03-06T00:34:17;96002.91;;;4.64;81.44
66479;BME280;53294;47.912;13.526;2024-03-06T00:36:43;96010.59;;;4.55;81.83
66479;BME280;53294;47.912;13.526;2024-03-06T00:39:10;96003.19;;;4.57;81.99
66479;BME280;53294;47.912;13.526;2024-03-06T00:41:37;96005.06;;;4.62;81.70
66479;BME280;53294;47.912;13.526;2024-03-06T00:44:05;96008.25;;;4.64;81.91
66479;BME280;53294;47.912;13.526;2024-03-06T00:46:32;96006.91;;;4.61;82.09
66479;BME280;53294;47.912;13.526;2024-03-06T00:48:59;96004.53;;;4.65;81.98
66479;BME280;53294;47.912;13.526;2024-03-06T00:51:26;96004.00;;;4.68;81.89
66479;BME280;53294;47.912;13.526;2024-03-06T00:54:07;96004.53;;;4.70;81.86
66479;BME280;53294;47.912;13.526;2024-03-06T00:56:39;96003.75;;;4.70;81.98
66479;BME280;53294;47.912;13.526;2024-03-06T00:59:06;95997.06;;;4.67;81.86
66479;BME280;53294;47.912;13.526;2024-03-06T01:01:33;96000.25;;;4.59;82.98
66479;BME280;53294;47.912;13.526;2024-03-06T01:04:00;95997.59;;;4.64;82.68
66479;BME280;53294;47.912;13.526;2024-03-06T01:06:27;96005.59;;;4.69;82.92
66479;BME280;53294;47.912;13.526;2024-03-06T01:08:54;95995.78;;;4.75;82.82
66479;BME280;53294;47.912;13.526;2024-03-06T01:11:21;95988.06;;;4.78;82.59
66479;BME280;53294;47.912;13.526;2024-03-06T01:13:48;95982.72;;;4.78;82.79
66479;BME280;53294;47.912;13.526;2024-03-06T01:16:15;95991.28;;;4.80;82.24
66479;BME280;53294;47.912;13.526;2024-03-06T01:18:42;95990.19;;;4.81;82.45
66479;BME280;53294;47.912;13.526;2024-03-06T01:21:09;95993.91;;;4.75;83.35
66479;BME280;53294;47.912;13.526;2024-03-06T01:23:36;95997.91;;;4.73;83.45
66479;BME280;53294;47.912;13.526;2024-03-06T01:26:03;96000.31;;;4.79;82.57
66479;BME280;53294;47.912;13.526;2024-03-06T01:28:30;95998.16;;;4.76;82.87
66479;BME280;53294;47.912;13.526;2024-03-06T01:30:57;95995.47;;;4.66;83.83
66479;BME280;53294;47.912;13.526;2024-03-06T01:33:25;95993.38;;;4.73;83.81
66479;BME280;53294;47.912;13.526;2024-03-06T01:35:53;95993.91;;;4.75;83.64
66479;BME280;53294;47.912;13.526;2024-03-06T01:38:20;95983.03;;;4.82;83.00
66479;BME280;53294;47.912;13.526;2024-03-06T01:40:46;95991.81;;;4.88;83.01
66479;BME280;53294;47.912;13.526;2024-03-06T01:43:21;95995.53;;;4.87;82.63
66479;BME280;53294;47.912;13.526;2024-03-06T01:45:49;95994.75;;;4.91;82.69
66479;BME280;53294;47.912;13.526;2024-03-06T01:48:16;95995.03;;;4.90;82.58
66479;BME280;53294;47.912;13.526;2024-03-06T01:50:44;95999.28;;;4.96;81.84
66479;BME280;53294;47.912;13.526;2024-03-06T01:53:12;95994.47;;;4.82;82.10
66479;BME280;53294;47.912;13.526;2024-03-06T01:55:39;95987.78;;;4.75;82.92
66479;BME280;53294;47.912;13.526;2024-03-06T01:58:07;95980.59;;;4.75;83.19
66479;BME280;53294;47.912;13.526;2024-03-06T02:00:34;95980.84;;;4.63;83.78
66479;BME280;53294;47.912;13.526;2024-03-06T02:03:02;95979.50;;;4.66;84.16
66479;BME280;53294;47.912;13.526;2024-03-06T02:05:29;95977.41;;;4.68;84.14
66479;BME280;53294;47.912;13.526;2024-03-06T02:07:58;95982.72;;;4.68;84.04
66479;BME280;53294;47.912;13.526;2024-03-06T02:10:27;95963.31;;;4.73;84.60
66479;BME280;53294;47.912;13.526;2024-03-06T02:12:54;95960.66;;;4.83;83.97
66479;BME280;53294;47.912;13.526;2024-03-06T02:15:22;95964.13;;;4.83;84.23
66479;BME280;53294;47.912;13.526;2024-03-06T02:17:48;95959.84;;;4.88;84.28
66479;BME280;53294;47.912;13.526;2024-03-06T02:20:16;95964.09;;;4.68;83.92
66479;BME280;53294;47.912;13.526;2024-03-06T02:22:43;95967.28;;;4.75;84.17
66479;BME280;53294;47.912;13.526;2024-03-06T02:25:10;95962.50;;;4.72;84.26
66479;BME280;53294;47.912;13.526;2024-03-06T02:27:38;95968.34;;;4.69;84.43
66479;BME280;53294;47.912;13.526;2024-03-06T02:30:05;95966.72;;;4.53;84.85
66479;BME280;53294;47.912;13.526;2024-03-06T02:32:32;95957.66;;;4.48;85.84
66479;BME280;53294;47.912;13.526;2024-03-06T02:35:01;95952.59;;;4.52;86.06
66479;BME280;53294;47.912;13.526;2024-03-06T02:37:29;95947.03;;;4.59;86.05
66479;BME280;53294;47.912;13.526;2024-03-06T02:39:56;95942.78;;;4.63;85.89
66479;BME280;53294;47.912;13.526;2024-03-06T02:42:22;95953.72;;;4.66;85.97
66479;BME280;53294;47.912;13.526;2024-03-06T02:44:49;95951.84;;;4.72;86.03
66479;BME280;53294;47.912;13.526;2024-03-06T02:47:16;95944.41;;;4.79;85.51
66479;BME280;53294;47.912;13.526;2024-03-06T02:49:42;95940.69;;;4.85;85.61
66479;BME280;53294;47.912;13.526;2024-03-06T02:52:10;95953.22;;;4.90;85.34
66479;BME280;53294;47.912;13.526;2024-03-06T02:54:36;95948.41;;;4.92;84.96
66479;BME280;53294;47.912;13.526;2024-03-06T02:57:03;95944.44;;;4.95;84.95
66479;BME280;53294;47.912;13.526;2024-03-06T02:59:30;95956.69;;;5.06;84.12
66479;BME280;53294;47.912;13.526;2024-03-06T03:01:56;95951.91;;;5.13;83.66
66479;BME280;53294;47.912;13.526;2024-03-06T03:04:23;95951.38;;;5.11;83.56
66479;BME280;53294;47.912;13.526;2024-03-06T03:06:50;95947.13;;;5.20;83.14
66479;BME280;53294;47.912;13.526;2024-03-06T03:09:17;95950.31;;;5.28;82.46
66479;BME280;53294;47.912;13.526;2024-03-06T03:11:44;95952.19;;;5.27;82.14
66479;BME280;53294;47.912;13.526;2024-03-06T03:14:11;95956.19;;;5.19;82.45
66479;BME280;53294;47.912;13.526;2024-03-06T03:16:38;95952.44;;;5.10;82.74
66479;BME280;53294;47.912;13.526;2024-03-06T03:19:05;95949.50;;;5.01;83.73
66479;BME280;53294;47.912;13.526;2024-03-06T03:21:32;95940.69;;;4.80;85.78
66479;BME280;53294;47.912;13.526;2024-03-06T03:23:58;95942.03;;;4.73;86.67
66479;BME280;53294;47.912;13.526;2024-03-06T03:26:25;95939.59;;;4.56;88.02
66479;BME280;53294;47.912;13.526;2024-03-06T03:28:52;95927.84;;;4.46;89.73
66479;BME280;53294;47.912;13.526;2024-03-06T03:31:19;95934.75;;;4.37;90.63
66479;BME280;53294;47.912;13.526;2024-03-06T03:33:46;95930.25;;;4.48;90.19
66479;BME280;53294;47.912;13.526;2024-03-06T03:36:12;95935.31;;;4.55;89.56
66479;BME280;53294;47.912;13.526;2024-03-06T03:38:39;95927.06;;;4.46;89.18
66479;BME280;53294;47.912;13.526;2024-03-06T03:41:12;95931.53;;;4.30;89.97
66479;BME280;53294;47.912;13.526;2024-03-06T03:43:40;95931.72;;;4.08;91.33
66479;BME280;53294;47.912;13.526;2024-03-06T03:46:07;95929.84;;;4.08;92.17
66479;BME280;53294;47.912;13.526;2024-03-06T03:48:35;95936.19;;;3.97;92.33
66479;BME280;53294;47.912;13.526;2024-03-06T03:51:04;95937.78;;;3.98;92.35
66479;BME280;53294;47.912;13.526;2024-03-06T03:53:33;95940.41;;;3.93;91.52
66479;BME280;53294;47.912;13.526;2024-03-06T03:56:00;95952.97;;;4.08;90.85
66479;BME280;53294;47.912;13.526;2024-03-06T03:58:27;95942.59;;;4.01;90.38
66479;BME280;53294;47.912;13.526;2024-03-06T04:00:54;95944.13;;;3.92;90.85
66479;BME280;53294;47.912;13.526;2024-03-06T04:03:22;95947.84;;;3.91;90.51
66479;BME280;53294;47.912;13.526;2024-03-06T04:05:51;95944.97;;;4.03;89.99
66479;BME280;53294;47.912;13.526;2024-03-06T04:08:18;95953.31;;;4.22;88.50
66479;BME280;53294;47.912;13.526;2024-03-06T04:10:45;95954.91;;;4.23;87.62
66479;BME280;53294;47.912;13.526;2024-03-06T04:13:12;95959.13;;;4.19;88.15
66479;BME280;53294;47.912;13.526;2024-03-06T04:15:39;95959.38;;;4.12;88.90
66479;BME280;53294;47.912;13.526;2024-03-06T04:18:06;95967.28;;;3.97;89.82
66479;BME280;53294;47.912;13.526;2024-03-06T04:20:33;95963.88;;;4.11;89.07
66479;BME280;53294;47.912;13.526;2024-03-06T04:23:00;95965.06;;;4.36;86.78
66479;BME280;53294;47.912;13.526;2024-03-06T04:25:27;95966.13;;;4.40;86.16
66479;BME280;53294;47.912;13.526;2024-03-06T04:27:54;95967.94;;;4.24;86.64
66479;BME280;53294;47.912;13.526;2024-03-06T04:30:21;95971.84;;;4.06;87.02
66479;BME280;53294;47.912;13.526;2024-03-06T04:32:48;95969.72;;;4.08;87.03
66479;BME280;53294;47.912;13.526;2024-03-06T04:35:15;95970.53;;;4.09;86.82
66479;BME280;53294;47.912;13.526;2024-03-06T04:37:42;95971.69;;;3.81;88.34
66479;BME280;53294;47.912;13.526;2024-03-06T04:40:11;95971.00;;;3.53;89.52
66479;BME280;53294;47.912;13.526;2024-03-06T04:42:38;95977.38;;;3.52;87.76
66479;BME280;53294;47.912;13.526;2024-03-06T04:45:15;95987.47;;;2.90;92.87
66479;BME280;53294;47.912;13.526;2024-03-06T04:47:43;95979.72;;;2.83;94.13
66479;BME280;53294;47.912;13.526;2024-03-06T04:50:10;95981.41;;;2.67;94.55
66479;BME280;53294;47.912;13.526;2024-03-06T04:52:38;95982.25;;;3.00;92.73
66479;BME280;53294;47.912;13.526;2024-03-06T04:55:06;95980.00;;;3.14;91.30
66479;BME280;53294;47.912;13.526;2024-03-06T04:57:34;95980.50;;;3.44;88.58
66479;BME280;53294;47.912;13.526;2024-03-06T05:00:01;95977.66;;;3.23;88.08
66479;BME280;53294;47.912;13.526;2024-03-06T05:02:32;95988.97;;;3.08;88.92
66479;BME280;53294;47.912;13.526;2024-03-06T05:05:18;95988.34;;;3.01;90.27
66479;BME280;53294;47.912;13.526;2024-03-06T05:08:02;96002.09;;;2.93;92.21
66479;BME280;53294;47.912;13.526;2024-03-06T05:10:47;95997.19;;;3.07;91.44
66479;BME280;53294;47.912;13.526;2024-03-06T05:13:31;95990.66;;;3.19;90.35
66479;BME280;53294;47.912;13.526;2024-03-06T05:16:15;96005.06;;;3.29;89.68
66479;BME280;53294;47.912;13.526;2024-03-06T05:18:58;96003.78;;;3.31;88.43
66479;BME280;53294;47.912;13.526;2024-03-06T05:21:43;96009.22;;;3.19;87.96
66479;BME280;53294;47.912;13.526;2024-03-06T05:24:27;96017.97;;;3.20;88.11
66479;BME280;53294;47.912;13.526;2024-03-06T05:27:11;96016.91;;;3.16;89.82
66479;BME280;53294;47.912;13.526;2024-03-06T05:30:00;96017.81;;;3.27;90.00
66479;BME280;53294;47.912;13.526;2024-03-06T05:32:44;96021.84;;;3.34;89.71
66479;BME280;53294;47.912;13.526;2024-03-06T05:35:28;96026.19;;;3.46;88.12
66479;BME280;53294;47.912;13.526;2024-03-06T05:38:12;96031.16;;;3.37;87.97
66479;BME280;53294;47.912;13.526;2024-03-06T05:40:56;96040.53;;;2.90;92.06
66479;BME280;53294;47.912;13.526;2024-03-06T05:43:40;96034.88;;;3.09;91.77
66479;BME280;53294;47.912;13.526;2024-03-06T05:46:25;96041.34;;;3.18;91.53
66479;BME280;53294;47.912;13.526;2024-03-06T05:49:10;96052.84;;;3.29;91.98
66479;BME280;53294;47.912;13.526;2024-03-06T05:51:54;96055.94;;;3.48;91.74
66479;BME280;53294;47.912;13.526;2024-03-06T05:54:38;96053.13;;;3.59;91.02
66479;BME280;53294;47.912;13.526;2024-03-06T05:57:23;96051.91;;;3.77;90.22
66479;BME280;53294;47.912;13.526;2024-03-06T06:00:07;96059.47;;;3.91;89.17
66479;BME280;53294;47.912;13.526;2024-03-06T06:02:38;96056.31;;;3.99;88.14
66479;BME280;53294;47.912;13.526;2024-03-06T06:05:05;96056.66;;;4.08;88.18
66479;BME280;53294;47.912;13.526;2024-03-06T06:07:49;96067.06;;;4.14;87.68
66479;BME280;53294;47.912;13.526;2024-03-06T06:10:17;96063.09;;;4.17;87.94
66479;BME280;53294;47.912;13.526;2024-03-06T06:12:47;96071.69;;;3.92;89.02
66479;BME280;53294;47.912;13.526;2024-03-06T06:15:14;96067.31;;;3.75;90.58
66479;BME280;53294;47.912;13.526;2024-03-06T06:17:42;96082.34;;;3.59;92.13
66479;BME280;53294;47.912;13.526;2024-03-06T06:20:12;96075.66;;;3.57;92.92
66479;BME280;53294;47.912;13.526;2024-03-06T06:22:43;96079.94;;;3.58;93.58
66479;BME280;53294;47.912;13.526;2024-03-06T06:25:10;96084.19;;;3.59;93.84
66479;BME280;53294;47.912;13.526;2024-03-06T06:27:37;96086.44;;;3.77;93.85
66479;BME280;53294;47.912;13.526;2024-03-06T06:30:06;96090.84;;;3.94;93.42
66479;BME280;53294;47.912;13.526;2024-03-06T06:32:35;96095.41;;;4.04;92.30
66479;BME280;53294;47.912;13.526;2024-03-06T06:35:02;96098.81;;;3.94;92.21
66479;BME280;53294;47.912;13.526;2024-03-06T06:37:29;96102.31;;;4.00;92.64
66479;BME280;53294;47.912;13.526;2024-03-06T06:39:56;96098.19;;;3.82;93.38
66479;BME280;53294;47.912;13.526;2024-03-06T06:42:23;96101.09;;;3.80;93.69
66479;BME280;53294;47.912;13.526;2024-03-06T06:44:51;96095.56;;;3.87;94.59
66479;BME280;53294;47.912;13.526;2024-03-06T06:47:18;96104.09;;;3.89;94.35
66479;BME280;53294;47.912;13.526;2024-03-06T06:49:44;96098.78;;;3.89;93.72
66479;BME280;53294;47.912;13.526;2024-03-06T06:52:11;96110.34;;;3.72;94.72
66479;BME280;53294;47.912;13.526;2024-03-06T06:54:38;96109.75;;;3.65;95.27
66479;BME280;53294;47.912;13.526;2024-03-06T06:57:05;96113.50;;;3.69;95.79
66479;BME280;53294;47.912;13.526;2024-03-06T06:59:31;96114.25;;;3.65;95.75
66479;BME280;53294;47.912;13.526;2024-03-06T07:01:58;96112.34;;;3.60;96.34
66479;BME280;53294;47.912;13.526;2024-03-06T07:04:25;96123.84;;;3.66;97.20
66479;BME280;53294;47.912;13.526;2024-03-06T07:06:52;96126.50;;;3.66;96.27
66479;BME280;53294;47.912;13.526;2024-03-06T07:09:19;96121.00;;;3.77;96.09
66479;BME280;53294;47.912;13.526;2024-03-06T07:11:46;96126.63;;;3.81;96.13
66479;BME280;53294;47.912;13.526;2024-03-06T07:14:13;96120.59;;;3.91;95.74
66479;BME280;53294;47.912;13.526;2024-03-06T07:16:44;96121.13;;;3.93;94.90
66479;BME280;53294;47.912;13.526;2024-03-06T07:19:11;96126.44;;;3.93;95.17
66479;BME280;53294;47.912;13.526;2024-03-06T07:21:38;96123.22;;;3.86;95.82
66479;BME280;53294;47.912;13.526;2024-03-06T07:24:05;96122.06;;;3.76;97.23
66479;BME280;53294;47.912;13.526;2024-03-06T07:26:33;96141.06;;;3.90;97.67
66479;BME280;53294;47.912;13.526;2024-03-06T07:29:00;96133.38;;;3.94;97.44
66479;BME280;53294;47.912;13.526;2024-03-06T07:31:28;96136.03;;;3.94;97.78
66479;BME280;53294;47.912;13.526;2024-03-06T07:33:55;96136.56;;;3.96;97.87
66479;BME280;53294;47.912;13.526;2024-03-06T07:36:21;96137.19;;;4.08;97.52
66479;BME280;53294;47.912;13.526;2024-03-06T07:38:48;96143.59;;;4.07;96.79
66479;BME280;53294;47.912;13.526;2024-03-06T07:41:15;96140.66;;;4.09;96.82
66479;BME280;53294;47.912;13.526;2024-03-06T07:43:42;96142.81;;;4.12;97.14
66479;BME280;53294;47.912;13.526;2024-03-06T07:46:09;96142.63;;;4.24;96.47
66479;BME280;53294;47.912;13.526;2024-03-06T07:48:37;96151.19;;;4.31;95.85
66479;BME280;53294;47.912;13.526;2024-03-06T07:51:05;96154.72;;;4.42;95.38
66479;BME280;53294;47.912;13.526;2024-03-06T07:53:32;96150.75;;;4.44;95.16
66479;BME280;53294;47.912;13.526;2024-03-06T07:55:59;96152.66;;;4.54;94.67
66479;BME280;53294;47.912;13.526;2024-03-06T07:58:25;96161.16;;;4.51;94.52
66479;BME280;53294;47.912;13.526;2024-03-06T08:00:52;96160.41;;;4.56;94.50
66479;BME280;53294;47.912;13.526;2024-03-06T08:03:23;96157.25;;;4.64;94.11
66479;BME280;53294;47.912;13.526;2024-03-06T08:05:52;96163.34;;;4.64;93.34
66479;BME280;53294;47.912;13.526;2024-03-06T08:08:21;96164.72;;;4.72;93.54
66479;BME280;53294;47.912;13.526;2024-03-06T08:10:49;96160.75;;;4.75;93.00
66479;BME280;53294;47.912;13.526;2024-03-06T08:13:16;96161.88;;;4.84;92.58
66479;BME280;53294;47.912;13.526;2024-03-06T08:15:43;96166.50;;;5.04;92.17
66479;BME280;53294;47.912;13.526;2024-03-06T08:18:12;96162.28;;;5.13;91.51
66479;BME280;53294;47.912;13.526;2024-03-06T08:20:40;96170.28;;;5.18;90.33
66479;BME280;53294;47.912;13.526;2024-03-06T08:23:07;96169.75;;;5.21;90.30
66479;BME280;53294;47.912;13.526;2024-03-06T08:25:36;96172.94;;;5.18;89.97
66479;BME280;53294;47.912;13.526;2024-03-06T08:28:04;96179.34;;;5.22;90.24
66479;BME280;53294;47.912;13.526;2024-03-06T08:30:32;96175.97;;;5.48;88.61
66479;BME280;53294;47.912;13.526;2024-03-06T08:32:59;96181.03;;;5.44;88.21
66479;BME280;53294;47.912;13.526;2024-03-06T08:35:27;96178.38;;;5.49;88.49
66479;BME280;53294;47.912;13.526;2024-03-06T08:37:54;96181.03;;;5.54;88.08
66479;BME280;53294;47.912;13.526;2024-03-06T08:40:21;96190.38;;;5.62;87.46
66479;BME280;53294;47.912;13.526;2024-03-06T08:42:50;96188.81;;;5.71;87.22
66479;BME280;53294;47.912;13.526;2024-03-06T08:45:17;96189.59;;;5.67;86.11
66479;BME280;53294;47.912;13.526;2024-03-06T08:47:45;96184.25;;;5.67;86.38
66479;BME280;53294;47.912;13.526;2024-03-06T08:50:12;96194.88;;;5.51;87.07
66479;BME280;53294;47.912;13.526;2024-03-06T08:52:40;96194.34;;;5.49;87.50
66479;BME280;53294;47.912;13.526;2024-03-06T08:55:08;96195.41;;;5.43;87.85
66479;BME280;53294;47.912;13.526;2024-03-06T08:57:35;96193.81;;;5.47;87.50
66479;BME280;53294;47.912;13.526;2024-03-06T09:00:03;96191.09;;;5.27;88.61
66479;BME280;53294;47.912;13.526;2024-03-06T09:02:31;96199.59;;;5.24;89.01
66479;BME280;53294;47.912;13.526;2024-03-06T09:04:57;96199.03;;;5.21;89.20
66479;BME280;53294;47.912;13.526;2024-03-06T09:07:24;96208.13;;;5.31;89.15
66479;BME280;53294;47.912;13.526;2024-03-06T09:09:52;96208.72;;;5.48;87.69
66479;BME280;53294;47.912;13.526;2024-03-06T09:12:19;96208.72;;;5.48;87.37
66479;BME280;53294;47.912;13.526;2024-03-06T09:14:46;96203.97;;;5.50;87.93
66479;BME280;53294;47.912;13.526;2024-03-06T09:17:13;96207.66;;;5.44;87.21
66479;BME280;53294;47.912;13.526;2024-03-06T09:19:41;96218.28;;;5.34;87.93
66479;BME280;53294;47.912;13.526;2024-03-06T09:22:28;96214.31;;;5.42;87.89
66479;BME280;53294;47.912;13.526;2024-03-06T09:24:55;96220.72;;;5.51;86.57
66479;BME280;53294;47.912;13.526;2024-03-06T09:27:23;96220.22;;;5.59;86.74
66479;BME280;53294;47.912;13.526;2024-03-06T09:29:49;96212.53;;;5.68;85.83
66479;BME280;53294;47.912;13.526;2024-03-06T09:32:16;96219.94;;;5.55;84.99
66479;BME280;53294;47.912;13.526;2024-03-06T09:34:45;96224.75;;;5.58;85.92
66479;BME280;53294;47.912;13.526;2024-03-06T09:37:12;96225.31;;;5.66;84.68
66479;BME280;53294;47.912;13.526;2024-03-06T09:39:39;96223.72;;;5.65;82.86
66479;BME280;53294;47.912;13.526;2024-03-06T09:42:06;96225.03;;;5.57;83.37
66479;BME280;53294;47.912;13.526;2024-03-06T09:44:34;96228.47;;;5.57;82.63
66479;BME280;53294;47.912;13.526;2024-03-06T09:47:03;96218.41;;;5.85;80.77
66479;BME280;53294;47.912;13.526;2024-03-06T09:49:31;96217.34;;;5.76;80.49
66479;BME280;53294;47.912;13.526;2024-03-06T09:51:58;96226.16;;;5.87;80.09
66479;BME280;53294;47.912;13.526;2024-03-06T09:54:25;96231.22;;;5.83;80.42
66479;BME280;53294;47.912;13.526;2024-03-06T09:56:55;96231.19;;;5.73;79.97
66479;BME280;53294;47.912;13.526;2024-03-06T09:59:23;96237.88;;;5.75;80.11
66479;BME280;53294;47.912;13.526;2024-03-06T10:01:55;96233.06;;;5.78;79.86
66479;BME280;53294;47.912;13.526;2024-03-06T10:04:27;96241.63;;;5.85;79.05
66479;BME280;53294;47.912;13.526;2024-03-06T10:06:58;96231.47;;;5.82;78.32
66479;BME280;53294;47.912;13.526;2024-03-06T10:09:26;96230.16;;;5.84;78.31
66479;BME280;53294;47.912;13.526;2024-03-06T10:11:53;96239.78;;;5.90;77.25
66479;BME280;53294;47.912;13.526;2024-03-06T10:14:23;96239.22;;;5.88;77.55
66479;BME280;53294;47.912;13.526;2024-03-06T10:16:53;96241.91;;;5.93;77.19
66479;BME280;53294;47.912;13.526;2024-03-06T10:19:21;96245.63;;;5.92;77.93
66479;BME280;53294;47.912;13.526;2024-03-06T10:21:49;96236.09;;;5.97;77.46
66479;BME280;53294;47.912;13.526;2024-03-06T10:24:25;96237.38;;;5.94;76.41
66479;BME280;53294;47.912;13.526;2024-03-06T10:26:54;96248.25;;;5.77;77.29
66479;BME280;53294;47.912;13.526;2024-03-06T10:29:22;96249.34;;;5.91;76.58
66479;BME280;53294;47.912;13.526;2024-03-06T10:31:56;96246.16;;;5.84;76.54
66479;BME280;53294;47.912;13.526;2024-03-06T10:34:25;96249.34;;;5.86;77.13
66479;BME280;53294;47.912;13.526;2024-03-06T10:36:55;96249.88;;;5.78;76.93
66479;BME280;53294;47.912;13.526;2024-03-06T10:39:23;96261.06;;;5.85;77.41
66479;BME280;53294;47.912;13.526;2024-03-06T10:41:56;96265.34;;;5.86;76.45
66479;BME280;53294;47.912;13.526;2024-03-06T10:44:25;96270.16;;;5.84;76.14
66479;BME280;53294;47.912;13.526;2024-03-06T10:46:58;96261.28;;;5.68;76.36
66479;BME280;53294;47.912;13.526;2024-03-06T10:49:27;96269.53;;;5.67;75.95
66479;BME280;53294;47.912;13.526;2024-03-06T10:51:58;96266.41;;;5.75;75.23
66479;BME280;53294;47.912;13.526;2024-03-06T10:54:30;96265.31;;;5.71;75.62
66479;BME280;53294;47.912;13.526;2024-03-06T10:56:59;96272.81;;;5.84;75.39
66479;BME280;53294;47.912;13.526;2024-03-06T10:59:26;96263.72;;;5.80;74.85
66479;BME280;53294;47.912;13.526;2024-03-06T11:01:58;96271.75;;;5.85;74.92
66479;BME280;53294;47.912;13.526;2024-03-06T11:04:29;96272.25;;;5.77;75.03
66479;BME280;53294;47.912;13.526;2024-03-06T11:07:02;96266.13;;;5.82;75.05
66479;BME280;53294;47.912;13.526;2024-03-06T11:09:36;96271.72;;;5.75;75.75
66479;BME280;53294;47.912;13.526;2024-03-06T11:12:05;96268.81;;;5.87;74.85
66479;BME280;53294;47.912;13.526;2024-03-06T11:14:39;96274.44;;;5.90;73.98
66479;BME280;53294;47.912;13.526;2024-03-06T11:17:10;96280.63;;;6.01;72.84
66479;BME280;53294;47.912;13.526;2024-03-06T11:23:18;96272.38;;;6.08;72.59
66479;BME280;53294;47.912;13.526;2024-03-06T11:28:19;96266.50;;;6.16;71.52
66479;BME280;53294;47.912;13.526;2024-03-06T11:33:15;96263.31;;;6.24;71.11
66479;BME280;53294;47.912;13.526;2024-03-06T11:36:20;96261.72;;;6.28;71.05
66479;BME280;53294;47.912;13.526;2024-03-06T11:38:50;96263.31;;;6.35;70.76
66479;BME280;53294;47.912;13.526;2024-03-06T11:41:20;96268.13;;;6.27;70.92
66479;BME280;53294;47.912;13.526;2024-03-06T11:43:51;96261.19;;;6.37;71.16
66479;BME280;53294;47.912;13.526;2024-03-06T11:46:20;96267.34;;;6.42;71.36
66479;BME280;53294;47.912;13.526;2024-03-06T11:48:54;96264.94;;;6.51;70.35
66479;BME280;53294;47.912;13.526;2024-03-06T11:51:22;96265.47;;;6.53;70.11
66479;BME280;53294;47.912;13.526;2024-03-06T11:53:50;96273.75;;;6.62;69.74
66479;BME280;53294;47.912;13.526;2024-03-06T11:56:18;96264.13;;;6.66;68.39
66479;BME280;53294;47.912;13.526;2024-03-06T11:58:47;96264.66;;;6.89;68.03
66479;BME280;53294;47.912;13.526;2024-03-06T12:01:16;96268.13;;;6.99;68.06
66479;BME280;53294;47.912;13.526;2024-03-06T12:03:47;96270.97;;;7.24;67.85
66479;BME280;53294;47.912;13.526;2024-03-06T12:06:14;96271.72;;;7.50;67.41
66479;BME280;53294;47.912;13.526;2024-03-06T12:08:43;96267.88;;;7.71;66.19
66479;BME280;53294;47.912;13.526;2024-03-06T12:11:10;96267.84;;;7.77;64.92
66479;BME280;53294;47.912;13.526;2024-03-06T12:13:37;96270.53;;;7.77;65.42
66479;BME280;53294;47.912;13.526;2024-03-06T12:16:05;96268.41;;;7.79;65.15
66479;BME280;53294;47.912;13.526;2024-03-06T12:18:33;96267.84;;;7.82;64.48
66479;BME280;53294;47.912;13.526;2024-03-06T12:21:01;96268.66;;;7.72;64.17
66479;BME280;53294;47.912;13.526;2024-03-06T12:23:29;96266.06;;;7.57;64.19
66479;BME280;53294;47.912;13.526;2024-03-06T12:26:03;96261.81;;;7.55;64.51
66479;BME280;53294;47.912;13.526;2024-03-06T12:28:39;96267.44;;;7.44;64.84
66479;BME280;53294;47.912;13.526;2024-03-06T12:31:24;96268.22;;;7.54;64.92
66479;BME280;53294;47.912;13.526;2024-03-06T12:33:57;96265.28;;;7.56;64.33
66479;BME280;53294;47.912;13.526;2024-03-06T12:36:28;96259.94;;;7.56;64.20
66479;BME280;53294;47.912;13.526;2024-03-06T12:38:59;96270.66;;;7.46;64.68
66479;BME280;53294;47.912;13.526;2024-03-06T12:41:27;96271.72;;;7.45;64.37
66479;BME280;53294;47.912;13.526;2024-03-06T12:43:54;96275.44;;;7.54;64.79
66479;BME280;53294;47.912;13.526;2024-03-06T12:46:23;96265.75;;;7.68;64.43
66479;BME280;53294;47.912;13.526;2024-03-06T12:48:50;96267.28;;;7.85;64.22
66479;BME280;53294;47.912;13.526;2024-03-06T12:51:17;96269.16;;;7.89;64.08
66479;BME280;53294;47.912;13.526;2024-03-06T12:53:44;96268.94;;;7.76;64.15
66479;BME280;53294;47.912;13.526;2024-03-06T12:56:11;96265.72;;;7.79;64.36
66479;BME280;53294;47.912;13.526;2024-03-06T12:58:38;96263.53;;;7.91;64.47
66479;BME280;53294;47.912;13.526;2024-03-06T13:01:05;96265.06;;;8.02;63.90
66479;BME280;53294;47.912;13.526;2024-03-06T13:03:32;96261.94;;;7.85;63.66
66479;BME280;53294;47.912;13.526;2024-03-06T13:05:59;96268.31;;;7.89;63.85
66479;BME280;53294;47.912;13.526;2024-03-06T13:08:26;96268.63;;;7.82;64.15
66479;BME280;53294;47.912;13.526;2024-03-06T13:10:53;96264.03;;;7.93;63.83
66479;BME280;53294;47.912;13.526;2024-03-06T13:13:20;96263.47;;;7.96;63.48
66479;BME280;53294;47.912;13.526;2024-03-06T13:15:47;96260.03;;;7.90;63.52
66479;BME280;53294;47.912;13.526;2024-03-06T13:18:15;96255.00;;;7.84;63.16
66479;BME280;53294;47.912;13.526;2024-03-06T13:20:43;96256.56;;;7.90;63.88